Time;durP1;ratioP1;P1;durP2;ratioP2;P2;SDS_P1;SDS_P2;PMS_P1;PMS_P2;Temp;Humidity;BMP_temperature;BMP_pressure;BME280_temperature;BME280_humidity;BME280_pressure;Samples;Min_cycle;Max_cycle;Signal;HPM_P1;HPM_P2
2022/01/26 00:15:47;;;;;;;9.95;5.47;;;9.10;71.20;;;;;;20646855;28;20045;-75
2022/01/26 00:46:17;;;;;;;12.00;6.70;;;9.10;71.20;;;;;;20661531;28;20073;-75
2022/01/26 00:56:17;;;;;;;10.57;6.03;;;9.10;71.10;;;;;;20624937;28;20030;-78
2022/01/26 01:06:23;;;;;;;10.65;5.45;;;9.20;71.20;;;;;;20656461;28;20125;-76
2022/01/26 01:16:24;;;;;;;10.93;5.50;;;9.10;71.10;;;;;;20640698;28;20332;-76
2022/01/26 01:36:48;;;;;;;12.10;6.05;;;9.10;71.00;;;;;;20641169;28;20040;-75
2022/01/26 01:46:50;;;;;;;8.30;4.85;;;9.10;71.00;;;;;;20637653;28;20109;-78
2022/01/26 01:56:55;;;;;;;7.95;4.78;;;9.10;71.00;;;;;;20636383;28;20060;-75
2022/01/26 02:06:56;;;;;;;14.13;5.68;;;9.00;70.90;;;;;;20635980;28;20038;-76
2022/01/26 02:17:15;;;;;;;9.07;4.93;;;9.00;70.90;;;;;;20650730;28;20069;-76
2022/01/26 03:08:31;;;;;;;7.45;3.85;;;9.00;70.80;;;;;;20633211;28;20057;-75
2022/01/26 03:18:57;;;;;;;6.60;3.70;;;9.00;70.80;;;;;;20632077;28;20062;-76
2022/01/26 03:29:11;;;;;;;7.95;3.20;;;9.00;70.70;;;;;;20649449;28;20034;-77
2022/01/26 03:39:14;;;;;;;6.07;3.47;;;9.00;70.70;;;;;;20648139;28;20038;-75
2022/01/26 03:49:15;;;;;;;5.47;2.70;;;9.00;70.70;;;;;;20661643;28;20043;-77
2022/01/26 03:59:15;;;;;;;7.55;3.65;;;9.00;70.70;;;;;;20648726;28;20142;-74
2022/01/26 04:09:18;;;;;;;7.47;3.78;;;9.00;70.70;;;;;;20644750;28;20044;-74
2022/01/26 04:19:20;;;;;;;6.40;3.45;;;9.00;70.70;;;;;;20645045;28;20043;-75
2022/01/26 04:29:26;;;;;;;6.72;3.50;;;9.00;70.60;;;;;;20627054;28;20097;-74
2022/01/26 04:39:35;;;;;;;6.23;3.43;;;9.00;70.60;;;;;;20642957;28;20365;-76
2022/01/26 04:49:36;;;;;;;7.68;3.15;;;9.00;70.60;;;;;;20658694;28;20150;-76
2022/01/26 04:59:36;;;;;;;9.50;3.63;;;9.00;70.60;;;;;;20656537;28;20096;-77
2022/01/26 05:09:37;;;;;;;6.28;2.83;;;9.00;70.60;;;;;;20623373;28;20057;-76
2022/01/26 05:19:37;;;;;;;5.60;2.50;;;9.00;70.60;;;;;;20639024;28;20038;-76
2022/01/26 05:29:38;;;;;;;4.57;2.65;;;9.10;70.60;;;;;;20638245;28;20293;-75
2022/01/26 05:39:39;;;;;;;5.23;2.40;;;9.00;70.60;;;;;;20637394;28;20189;-75
2022/01/26 05:49:39;;;;;;;4.63;2.45;;;9.00;70.60;;;;;;20668798;28;20321;-79
2022/01/26 05:59:40;;;;;;;6.85;3.30;;;9.00;70.50;;;;;;20650049;28;20042;-82
2022/01/26 06:09:40;;;;;;;7.40;3.47;;;9.00;70.40;;;;;;20664141;28;20034;-78
2022/01/26 06:19:42;;;;;;;5.93;2.67;;;9.20;70.10;;;;;;20714060;28;20057;-78
2022/01/26 06:29:44;;;;;;;7.38;2.65;;;9.30;69.80;;;;;;20724380;28;20064;-79
2022/01/26 06:39:45;;;;;;;6.30;2.75;;;9.30;69.50;;;;;;20737243;28;20038;-79
2022/01/26 06:49:46;;;;;;;6.88;3.47;;;9.30;69.30;;;;;;20718298;28;20381;-81
2022/01/26 06:59:47;;;;;;;6.60;3.10;;;9.30;69.30;;;;;;20710854;28;20046;-80
2022/01/26 07:09:48;;;;;;;5.68;3.00;;;9.20;69.30;;;;;;20631603;28;20496;-80
2022/01/26 07:20:17;;;;;;;5.07;2.63;;;9.20;69.40;;;;;;20692825;28;20050;-79
2022/01/26 07:30:15;;;;;;;6.85;3.58;;;9.10;69.50;;;;;;20690931;28;20096;-78
2022/01/26 07:40:15;;;;;;;8.10;3.33;;;9.10;69.50;;;;;;20698346;28;20030;-83
2022/01/26 07:50:17;;;;;;;7.93;3.15;;;9.00;69.50;;;;;;20737605;28;20104;-76
2022/01/26 08:00:18;;;;;;;7.45;3.55;;;9.00;69.60;;;;;;20708825;28;20038;-75
2022/01/26 08:10:19;;;;;;;8.82;3.70;;;9.00;69.50;;;;;;20643883;28;20401;-78
2022/01/26 08:20:21;;;;;;;7.57;4.28;;;9.00;69.50;;;;;;20707777;28;20041;-74
2022/01/26 08:30:22;;;;;;;13.15;4.75;;;9.10;69.40;;;;;;20651052;28;20061;-75
2022/01/26 08:40:23;;;;;;;13.30;5.13;;;8.90;69.20;;;;;;20703324;28;20048;-74
2022/01/26 08:50:23;;;;;;;11.75;5.93;;;8.90;69.10;;;;;;20736085;28;20391;-74
2022/01/26 09:00:24;;;;;;;15.77;6.75;;;8.90;69.00;;;;;;20697584;28;20046;-75
2022/01/26 09:10:27;;;;;;;15.38;6.60;;;8.80;69.00;;;;;;20666508;28;20063;-74
2022/01/26 09:20:27;;;;;;;17.05;7.13;;;8.90;69.00;;;;;;20644824;28;20038;-74
2022/01/26 09:30:29;;;;;;;18.75;7.97;;;8.90;68.90;;;;;;20665249;28;20037;-75
2022/01/26 09:40:30;;;;;;;23.08;8.77;;;8.80;68.80;;;;;;20718725;28;20319;-75
2022/01/26 09:50:32;;;;;;;17.90;8.35;;;8.80;68.60;;;;;;20689460;28;20035;-75
2022/01/26 10:00:33;;;;;;;17.02;7.65;;;8.80;68.40;;;;;;20666983;28;20044;-75
2022/01/26 10:15:27;;;;;;;18.67;8.07;;;8.80;68.40;;;;;;20690050;28;20121;-74
2022/01/26 10:20:58;;;;;;;25.50;8.40;;;8.70;68.30;;;;;;20652200;28;20444;-72
2022/01/26 10:30:59;;;;;;;22.05;9.00;;;8.70;68.10;;;;;;20633577;28;20121;-75
2022/01/26 10:41:01;;;;;;;25.55;8.60;;;8.70;68.10;;;;;;20683185;28;20085;-76
2022/01/26 11:01:19;;;;;;;17.70;7.97;;;8.70;67.90;;;;;;20649282;28;20725;-76
2022/01/26 11:11:22;;;;;;;24.10;9.27;;;8.70;67.90;;;;;;20625895;28;20046;-74
2022/01/26 11:21:28;;;;;;;21.90;8.55;;;8.70;67.80;;;;;;20630315;28;20038;-74
2022/01/26 11:31:32;;;;;;;23.20;10.30;;;8.70;67.70;;;;;;20716066;28;20038;-75
2022/01/26 11:51:55;;;;;;;24.95;10.07;;;9.20;66.90;;;;;;21102203;23;20042;-80
2022/01/26 12:02:00;;;;;;;25.75;11.20;;;9.40;66.20;;;;;;20618505;28;20540;-82
2022/01/26 12:12:05;;;;;;;20.30;8.50;;;9.60;65.80;;;;;;20618085;28;20061;-80
2022/01/26 12:42:53;;;;;;;22.30;10.10;;;9.60;65.20;;;;;;20645047;28;20034;-74
2022/01/26 12:52:55;;;;;;;20.15;9.02;;;9.60;65.40;;;;;;20675483;28;20066;-80
2022/01/26 13:02:55;;;;;;;20.60;10.60;;;9.40;65.50;;;;;;20659357;28;20041;-82
2022/01/26 13:13:09;;;;;;;31.75;10.63;;;9.40;65.70;;;;;;20627607;28;20034;-83
2022/01/26 13:54:28;;;;;;;25.70;11.02;;;9.00;66.70;;;;;;20661554;28;20451;-76
2022/01/26 14:03:58;;;;;;;21.38;9.95;;;9.00;66.80;;;;;;20708683;28;20789;-77
2022/01/26 14:14:00;;;;;;;31.13;12.45;;;8.90;67.00;;;;;;20683060;28;20102;-77
2022/01/26 14:55:00;;;;;;;35.85;13.00;;;8.80;67.30;;;;;;20683122;28;20064;-78
2022/01/26 15:40:05;;;;;;;30.00;13.45;;;8.80;67.70;;;;;;20696335;28;20053;-79
2022/01/26 16:07:41;;;;;;;34.97;15.25;;;9.00;67.40;;;;;;20679986;28;20069;-78
2022/01/26 16:37:56;;;;;;;34.03;15.05;;;9.70;65.80;;;;;;20659881;28;20105;-77
2022/01/26 18:51:19;;;;;;;21.73;9.50;;;8.80;68.10;;;;;;20753231;28;20042;-85
2022/01/26 19:01:21;;;;;;;22.35;9.40;;;8.80;68.20;;;;;;20752124;28;20049;-86
2022/01/26 19:11:22;;;;;;;21.85;8.63;;;8.80;68.20;;;;;;20724787;28;20042;-88
2022/01/26 19:32:04;;;;;;;18.38;8.38;;;8.70;68.30;;;;;;20655178;28;20039;-87
2022/01/26 19:43:28;;;;;;;22.13;9.95;;;8.70;68.40;;;;;;20655889;28;20093;-87
2022/01/26 19:52:32;;;;;;;20.48;10.27;;;8.70;68.50;;;;;;20649535;28;20420;-87
2022/01/26 20:02:33;;;;;;;21.02;8.73;;;8.70;68.50;;;;;;20636994;28;20038;-87
2022/01/26 20:12:43;;;;;;;17.60;7.57;;;8.70;68.60;;;;;;20635801;28;20507;-87
2022/01/26 20:22:44;;;;;;;18.13;8.38;;;8.70;68.60;;;;;;20652887;28;20034;-88
2022/01/26 20:32:46;;;;;;;15.85;7.68;;;8.70;68.70;;;;;;20743315;28;20042;-87
2022/01/26 20:42:47;;;;;;;22.02;8.40;;;8.70;68.70;;;;;;20735854;28;20404;-88
2022/01/26 20:52:49;;;;;;;16.10;7.28;;;8.70;68.70;;;;;;20746080;28;20045;-87
2022/01/26 21:02:50;;;;;;;14.68;6.72;;;8.70;68.70;;;;;;20680839;28;20351;-86
2022/01/26 21:12:51;;;;;;;13.63;6.65;;;8.70;68.70;;;;;;20662940;28;20046;-87
2022/01/26 21:22:53;;;;;;;16.25;6.80;;;8.70;68.80;;;;;;20646608;28;20388;-87
2022/01/26 21:32:55;;;;;;;15.63;6.45;;;8.70;68.80;;;;;;20661800;28;20038;-87
2022/01/26 21:42:56;;;;;;;14.48;6.63;;;8.70;68.80;;;;;;20660858;28;20045;-87
2022/01/26 21:52:57;;;;;;;13.95;6.30;;;8.70;68.80;;;;;;20677366;28;20050;-87
2022/01/26 22:03:02;;;;;;;14.07;6.93;;;8.70;68.90;;;;;;20644334;28;20037;-88
2022/01/26 22:13:02;;;;;;;11.90;5.40;;;8.70;68.80;;;;;;20627511;28;20300;-87
2022/01/26 22:23:04;;;;;;;11.20;5.50;;;8.70;68.90;;;;;;20642412;28;20381;-89
2022/01/26 22:33:05;;;;;;;12.18;5.57;;;8.70;68.90;;;;;;20657485;28;20049;-89
2022/01/26 22:43:07;;;;;;;11.45;5.88;;;8.70;69.00;;;;;;20657421;28;20049;-88
2022/01/26 22:53:08;;;;;;;13.98;5.43;;;8.70;69.00;;;;;;20640871;28;20030;-89
2022/01/26 23:03:09;;;;;;;13.18;5.50;;;8.70;69.10;;;;;;20671730;28;20029;-87
2022/01/26 23:13:10;;;;;;;11.93;5.68;;;8.70;69.10;;;;;;20654923;28;20084;-87
2022/01/26 23:23:11;;;;;;;10.25;4.82;;;8.70;69.20;;;;;;20671018;28;20026;-88
